sensor_id;sensor_type;location;lat;lon;timestamp;P1;durP1;ratioP1;P2;durP2;ratioP2
60873;SDS011;46715;40.642;-7.920;2023-03-12T00:01:00;72.87;;;53.97;;
60873;SDS011;46715;40.642;-7.920;2023-03-12T00:03:01;78.37;;;55.30;;
60873;SDS011;46715;40.642;-7.920;2023-03-12T00:05:02;70.93;;;53.33;;
60873;SDS011;46715;40.642;-7.920;2023-03-12T00:07:03;73.75;;;54.97;;
60873;SDS011;46715;40.642;-7.920;2023-03-12T00:09:05;64.50;;;49.28;;
60873;SDS011;46715;40.642;-7.920;2023-03-12T00:11:09;65.30;;;49.80;;
60873;SDS011;46715;40.642;-7.920;2023-03-12T00:13:12;68.90;;;50.33;;
60873;SDS011;46715;40.642;-7.920;2023-03-12T00:15:12;61.77;;;50.17;;
60873;SDS011;46715;40.642;-7.920;2023-03-12T00:17:13;72.23;;;48.47;;
60873;SDS011;46715;40.642;-7.920;2023-03-12T00:19:14;54.57;;;43.80;;
60873;SDS011;46715;40.642;-7.920;2023-03-12T00:21:15;52.83;;;41.60;;
60873;SDS011;46715;40.642;-7.920;2023-03-12T00:23:16;58.72;;;43.33;;
60873;SDS011;46715;40.642;-7.920;2023-03-12T00:25:17;57.30;;;45.03;;
60873;SDS011;46715;40.642;-7.920;2023-03-12T00:27:18;64.10;;;45.67;;
60873;SDS011;46715;40.642;-7.920;2023-03-12T00:29:19;60.10;;;46.38;;
60873;SDS011;46715;40.642;-7.920;2023-03-12T00:31:21;56.80;;;45.17;;
60873;SDS011;46715;40.642;-7.920;2023-03-12T00:33:26;61.90;;;39.38;;
60873;SDS011;46715;40.642;-7.920;2023-03-12T00:35:30;57.03;;;41.20;;
60873;SDS011;46715;40.642;-7.920;2023-03-12T00:37:32;59.95;;;39.40;;
60873;SDS011;46715;40.642;-7.920;2023-03-12T00:39:33;66.70;;;43.93;;
60873;SDS011;46715;40.642;-7.920;2023-03-12T00:41:34;62.28;;;43.40;;
60873;SDS011;46715;40.642;-7.920;2023-03-12T00:43:35;55.57;;;39.90;;
60873;SDS011;46715;40.642;-7.920;2023-03-12T00:45:36;51.03;;;36.80;;
60873;SDS011;46715;40.642;-7.920;2023-03-12T00:47:36;55.63;;;38.80;;
60873;SDS011;46715;40.642;-7.920;2023-03-12T00:49:37;48.73;;;38.37;;
60873;SDS011;46715;40.642;-7.920;2023-03-12T00:51:38;51.60;;;37.78;;
60873;SDS011;46715;40.642;-7.920;2023-03-12T00:53:39;44.73;;;34.33;;
60873;SDS011;46715;40.642;-7.920;2023-03-12T00:55:40;43.17;;;32.70;;
60873;SDS011;46715;40.642;-7.920;2023-03-12T00:57:42;56.13;;;36.95;;
60873;SDS011;46715;40.642;-7.920;2023-03-12T00:59:42;56.40;;;35.73;;
60873;SDS011;46715;40.642;-7.920;2023-03-12T01:01:43;44.72;;;32.58;;
60873;SDS011;46715;40.642;-7.920;2023-03-12T01:03:44;53.47;;;38.30;;
60873;SDS011;46715;40.642;-7.920;2023-03-12T01:05:46;57.80;;;34.72;;
60873;SDS011;46715;40.642;-7.920;2023-03-12T01:07:53;57.28;;;38.58;;
60873;SDS011;46715;40.642;-7.920;2023-03-12T01:09:53;63.97;;;38.87;;
60873;SDS011;46715;40.642;-7.920;2023-03-12T01:11:54;53.43;;;37.70;;
60873;SDS011;46715;40.642;-7.920;2023-03-12T01:13:55;52.75;;;38.17;;
60873;SDS011;46715;40.642;-7.920;2023-03-12T01:15:56;46.67;;;35.50;;
60873;SDS011;46715;40.642;-7.920;2023-03-12T01:17:57;49.17;;;35.33;;
60873;SDS011;46715;40.642;-7.920;2023-03-12T01:19:57;55.90;;;36.40;;
60873;SDS011;46715;40.642;-7.920;2023-03-12T01:22:02;48.50;;;38.30;;
60873;SDS011;46715;40.642;-7.920;2023-03-12T01:24:02;52.27;;;36.80;;
60873;SDS011;46715;40.642;-7.920;2023-03-12T01:26:04;58.97;;;41.42;;
60873;SDS011;46715;40.642;-7.920;2023-03-12T01:28:04;59.07;;;42.80;;
60873;SDS011;46715;40.642;-7.920;2023-03-12T01:30:05;56.00;;;39.40;;
60873;SDS011;46715;40.642;-7.920;2023-03-12T01:32:07;53.80;;;39.03;;
60873;SDS011;46715;40.642;-7.920;2023-03-12T01:34:09;47.90;;;37.97;;
60873;SDS011;46715;40.642;-7.920;2023-03-12T01:38:18;52.13;;;35.58;;
60873;SDS011;46715;40.642;-7.920;2023-03-12T01:40:20;48.58;;;28.83;;
60873;SDS011;46715;40.642;-7.920;2023-03-12T01:42:25;46.90;;;31.30;;
60873;SDS011;46715;40.642;-7.920;2023-03-12T01:44:26;44.83;;;29.33;;
60873;SDS011;46715;40.642;-7.920;2023-03-12T01:46:38;61.70;;;32.33;;
60873;SDS011;46715;40.642;-7.920;2023-03-12T01:49:10;49.13;;;29.45;;
60873;SDS011;46715;40.642;-7.920;2023-03-12T01:51:12;45.70;;;27.10;;
60873;SDS011;46715;40.642;-7.920;2023-03-12T01:53:15;49.10;;;29.45;;
60873;SDS011;46715;40.642;-7.920;2023-03-12T01:55:17;51.35;;;29.30;;
60873;SDS011;46715;40.642;-7.920;2023-03-12T01:57:24;53.65;;;27.92;;
60873;SDS011;46715;40.642;-7.920;2023-03-12T01:59:30;49.83;;;28.00;;
60873;SDS011;46715;40.642;-7.920;2023-03-12T02:01:34;58.70;;;29.63;;
60873;SDS011;46715;40.642;-7.920;2023-03-12T02:05:53;51.67;;;29.17;;
60873;SDS011;46715;40.642;-7.920;2023-03-12T02:07:57;54.17;;;30.48;;
60873;SDS011;46715;40.642;-7.920;2023-03-12T02:09:58;63.63;;;30.95;;
60873;SDS011;46715;40.642;-7.920;2023-03-12T02:11:59;48.80;;;30.00;;
60873;SDS011;46715;40.642;-7.920;2023-03-12T02:14:00;45.40;;;28.67;;
60873;SDS011;46715;40.642;-7.920;2023-03-12T02:16:02;45.75;;;28.17;;
60873;SDS011;46715;40.642;-7.920;2023-03-12T02:18:04;48.22;;;28.38;;
60873;SDS011;46715;40.642;-7.920;2023-03-12T02:22:16;48.67;;;26.70;;
60873;SDS011;46715;40.642;-7.920;2023-03-12T02:24:36;45.05;;;27.88;;
60873;SDS011;46715;40.642;-7.920;2023-03-12T02:26:44;50.65;;;29.88;;
60873;SDS011;46715;40.642;-7.920;2023-03-12T02:28:45;48.53;;;29.38;;
60873;SDS011;46715;40.642;-7.920;2023-03-12T02:30:49;45.42;;;28.23;;
60873;SDS011;46715;40.642;-7.920;2023-03-12T02:32:52;50.67;;;28.98;;
60873;SDS011;46715;40.642;-7.920;2023-03-12T02:34:55;53.63;;;28.75;;
60873;SDS011;46715;40.642;-7.920;2023-03-12T02:36:57;56.65;;;29.75;;
60873;SDS011;46715;40.642;-7.920;2023-03-12T02:38:58;44.43;;;27.70;;
60873;SDS011;46715;40.642;-7.920;2023-03-12T02:41:00;37.83;;;26.55;;
60873;SDS011;46715;40.642;-7.920;2023-03-12T02:43:05;46.88;;;27.50;;
60873;SDS011;46715;40.642;-7.920;2023-03-12T02:45:08;37.33;;;25.33;;
60873;SDS011;46715;40.642;-7.920;2023-03-12T02:47:09;42.73;;;25.60;;
60873;SDS011;46715;40.642;-7.920;2023-03-12T02:49:11;41.15;;;25.35;;
60873;SDS011;46715;40.642;-7.920;2023-03-12T02:51:12;44.65;;;27.75;;
60873;SDS011;46715;40.642;-7.920;2023-03-12T02:53:13;52.90;;;27.40;;
60873;SDS011;46715;40.642;-7.920;2023-03-12T02:55:14;40.60;;;26.33;;
60873;SDS011;46715;40.642;-7.920;2023-03-12T02:57:15;41.10;;;26.23;;
60873;SDS011;46715;40.642;-7.920;2023-03-12T02:59:17;46.78;;;26.58;;
60873;SDS011;46715;40.642;-7.920;2023-03-12T03:01:24;40.53;;;27.15;;
60873;SDS011;46715;40.642;-7.920;2023-03-12T03:03:26;38.08;;;24.38;;
60873;SDS011;46715;40.642;-7.920;2023-03-12T03:05:27;36.97;;;24.52;;
60873;SDS011;46715;40.642;-7.920;2023-03-12T03:07:27;39.63;;;23.93;;
60873;SDS011;46715;40.642;-7.920;2023-03-12T03:09:28;47.30;;;26.67;;
60873;SDS011;46715;40.642;-7.920;2023-03-12T03:11:29;38.27;;;24.40;;
60873;SDS011;46715;40.642;-7.920;2023-03-12T03:13:32;36.45;;;22.90;;
60873;SDS011;46715;40.642;-7.920;2023-03-12T03:15:34;33.28;;;21.70;;
60873;SDS011;46715;40.642;-7.920;2023-03-12T03:17:35;31.67;;;22.65;;
60873;SDS011;46715;40.642;-7.920;2023-03-12T03:19:36;36.28;;;21.33;;
60873;SDS011;46715;40.642;-7.920;2023-03-12T03:21:38;31.90;;;21.20;;
60873;SDS011;46715;40.642;-7.920;2023-03-12T03:23:39;25.47;;;19.00;;
60873;SDS011;46715;40.642;-7.920;2023-03-12T03:25:40;28.43;;;20.37;;
60873;SDS011;46715;40.642;-7.920;2023-03-12T03:27:40;27.13;;;20.33;;
60873;SDS011;46715;40.642;-7.920;2023-03-12T03:29:43;28.37;;;20.67;;
60873;SDS011;46715;40.642;-7.920;2023-03-12T03:31:45;28.83;;;19.90;;
60873;SDS011;46715;40.642;-7.920;2023-03-12T03:33:46;25.75;;;18.50;;
60873;SDS011;46715;40.642;-7.920;2023-03-12T03:35:48;25.15;;;19.73;;
60873;SDS011;46715;40.642;-7.920;2023-03-12T03:37:49;26.45;;;19.73;;
60873;SDS011;46715;40.642;-7.920;2023-03-12T03:39:49;27.80;;;20.53;;
60873;SDS011;46715;40.642;-7.920;2023-03-12T03:41:51;39.13;;;23.02;;
60873;SDS011;46715;40.642;-7.920;2023-03-12T03:43:56;29.25;;;20.23;;
60873;SDS011;46715;40.642;-7.920;2023-03-12T03:46:00;27.48;;;19.58;;
60873;SDS011;46715;40.642;-7.920;2023-03-12T03:48:05;26.08;;;19.70;;
60873;SDS011;46715;40.642;-7.920;2023-03-12T03:50:07;26.92;;;20.23;;
60873;SDS011;46715;40.642;-7.920;2023-03-12T03:52:08;27.70;;;19.13;;
60873;SDS011;46715;40.642;-7.920;2023-03-12T03:54:10;25.95;;;17.35;;
60873;SDS011;46715;40.642;-7.920;2023-03-12T03:56:12;23.60;;;18.40;;
60873;SDS011;46715;40.642;-7.920;2023-03-12T03:58:20;29.10;;;20.23;;
60873;SDS011;46715;40.642;-7.920;2023-03-12T04:00:21;31.30;;;20.35;;
60873;SDS011;46715;40.642;-7.920;2023-03-12T04:02:25;27.55;;;20.63;;
60873;SDS011;46715;40.642;-7.920;2023-03-12T04:04:27;28.80;;;19.58;;
60873;SDS011;46715;40.642;-7.920;2023-03-12T04:06:28;27.93;;;19.70;;
60873;SDS011;46715;40.642;-7.920;2023-03-12T04:10:36;23.10;;;16.95;;
60873;SDS011;46715;40.642;-7.920;2023-03-12T04:12:36;22.13;;;16.07;;
60873;SDS011;46715;40.642;-7.920;2023-03-12T04:14:39;26.55;;;14.45;;
60873;SDS011;46715;40.642;-7.920;2023-03-12T04:16:40;19.15;;;13.55;;
60873;SDS011;46715;40.642;-7.920;2023-03-12T04:18:43;23.98;;;16.08;;
60873;SDS011;46715;40.642;-7.920;2023-03-12T04:20:45;20.52;;;13.80;;
60873;SDS011;46715;40.642;-7.920;2023-03-12T04:22:46;22.00;;;16.03;;
60873;SDS011;46715;40.642;-7.920;2023-03-12T04:24:46;23.10;;;16.17;;
60873;SDS011;46715;40.642;-7.920;2023-03-12T04:26:48;25.55;;;17.30;;
60873;SDS011;46715;40.642;-7.920;2023-03-12T04:30:57;109.53;;;25.40;;
60873;SDS011;46715;40.642;-7.920;2023-03-12T04:33:00;144.32;;;25.15;;
60873;SDS011;46715;40.642;-7.920;2023-03-12T04:35:01;105.50;;;20.40;;
60873;SDS011;46715;40.642;-7.920;2023-03-12T04:37:02;171.83;;;23.43;;
60873;SDS011;46715;40.642;-7.920;2023-03-12T04:39:03;227.45;;;25.02;;
60873;SDS011;46715;40.642;-7.920;2023-03-12T04:41:10;165.45;;;22.77;;
60873;SDS011;46715;40.642;-7.920;2023-03-12T04:45:21;205.25;;;22.10;;
60873;SDS011;46715;40.642;-7.920;2023-03-12T04:49:23;199.32;;;23.60;;
60873;SDS011;46715;40.642;-7.920;2023-03-12T04:51:24;201.98;;;25.17;;
60873;SDS011;46715;40.642;-7.920;2023-03-12T04:53:25;201.67;;;26.50;;
60873;SDS011;46715;40.642;-7.920;2023-03-12T04:55:31;184.68;;;29.17;;
60873;SDS011;46715;40.642;-7.920;2023-03-12T04:57:31;159.13;;;25.63;;
60873;SDS011;46715;40.642;-7.920;2023-03-12T04:59:32;197.45;;;29.30;;
60873;SDS011;46715;40.642;-7.920;2023-03-12T05:01:34;222.23;;;32.50;;
60873;SDS011;46715;40.642;-7.920;2023-03-12T05:03:41;160.93;;;28.08;;
60873;SDS011;46715;40.642;-7.920;2023-03-12T05:05:42;196.60;;;30.40;;
60873;SDS011;46715;40.642;-7.920;2023-03-12T05:07:43;129.35;;;26.15;;
60873;SDS011;46715;40.642;-7.920;2023-03-12T05:09:45;135.30;;;27.08;;
60873;SDS011;46715;40.642;-7.920;2023-03-12T05:11:46;144.23;;;27.95;;
60873;SDS011;46715;40.642;-7.920;2023-03-12T05:13:50;118.65;;;24.60;;
60873;SDS011;46715;40.642;-7.920;2023-03-12T05:15:51;168.93;;;27.27;;
60873;SDS011;46715;40.642;-7.920;2023-03-12T05:17:53;111.05;;;26.75;;
60873;SDS011;46715;40.642;-7.920;2023-03-12T05:19:54;178.65;;;30.67;;
60873;SDS011;46715;40.642;-7.920;2023-03-12T05:21:54;102.03;;;26.37;;
60873;SDS011;46715;40.642;-7.920;2023-03-12T05:23:56;129.57;;;28.10;;
60873;SDS011;46715;40.642;-7.920;2023-03-12T05:25:59;194.13;;;33.60;;
60873;SDS011;46715;40.642;-7.920;2023-03-12T05:28:01;82.70;;;24.88;;
60873;SDS011;46715;40.642;-7.920;2023-03-12T05:30:03;142.20;;;28.20;;
60873;SDS011;46715;40.642;-7.920;2023-03-12T05:32:05;190.40;;;35.53;;
60873;SDS011;46715;40.642;-7.920;2023-03-12T05:34:09;163.38;;;31.67;;
60873;SDS011;46715;40.642;-7.920;2023-03-12T05:36:13;81.50;;;24.25;;
60873;SDS011;46715;40.642;-7.920;2023-03-12T05:38:18;65.45;;;20.30;;
60873;SDS011;46715;40.642;-7.920;2023-03-12T05:40:20;60.78;;;19.80;;
60873;SDS011;46715;40.642;-7.920;2023-03-12T05:42:21;131.90;;;23.10;;
60873;SDS011;46715;40.642;-7.920;2023-03-12T05:44:25;86.40;;;22.23;;
60873;SDS011;46715;40.642;-7.920;2023-03-12T05:46:28;77.20;;;21.08;;
60873;SDS011;46715;40.642;-7.920;2023-03-12T05:48:30;199.80;;;24.70;;
60873;SDS011;46715;40.642;-7.920;2023-03-12T05:50:31;170.45;;;21.48;;
60873;SDS011;46715;40.642;-7.920;2023-03-12T05:52:32;138.13;;;20.90;;
60873;SDS011;46715;40.642;-7.920;2023-03-12T05:54:33;153.35;;;23.13;;
60873;SDS011;46715;40.642;-7.920;2023-03-12T05:56:36;93.93;;;18.30;;
60873;SDS011;46715;40.642;-7.920;2023-03-12T05:58:38;192.65;;;29.20;;
60873;SDS011;46715;40.642;-7.920;2023-03-12T06:00:40;153.52;;;25.73;;
60873;SDS011;46715;40.642;-7.920;2023-03-12T06:02:42;146.07;;;24.48;;
60873;SDS011;46715;40.642;-7.920;2023-03-12T06:04:43;46.53;;;16.27;;
60873;SDS011;46715;40.642;-7.920;2023-03-12T06:06:44;108.17;;;22.60;;
60873;SDS011;46715;40.642;-7.920;2023-03-12T06:10:49;38.30;;;16.35;;
60873;SDS011;46715;40.642;-7.920;2023-03-12T06:12:52;56.03;;;18.33;;
60873;SDS011;46715;40.642;-7.920;2023-03-12T06:14:52;78.80;;;17.60;;
60873;SDS011;46715;40.642;-7.920;2023-03-12T06:16:53;147.67;;;21.50;;
60873;SDS011;46715;40.642;-7.920;2023-03-12T06:18:55;103.53;;;20.47;;
60873;SDS011;46715;40.642;-7.920;2023-03-12T06:21:07;22.00;;;14.05;;
60873;SDS011;46715;40.642;-7.920;2023-03-12T06:23:13;27.00;;;17.40;;
60873;SDS011;46715;40.642;-7.920;2023-03-12T06:25:14;20.97;;;14.73;;
60873;SDS011;46715;40.642;-7.920;2023-03-12T06:27:15;23.87;;;16.40;;
60873;SDS011;46715;40.642;-7.920;2023-03-12T06:29:16;23.23;;;16.40;;
60873;SDS011;46715;40.642;-7.920;2023-03-12T06:31:17;22.27;;;15.43;;
60873;SDS011;46715;40.642;-7.920;2023-03-12T06:33:19;20.58;;;15.18;;
60873;SDS011;46715;40.642;-7.920;2023-03-12T06:35:20;19.67;;;14.80;;
60873;SDS011;46715;40.642;-7.920;2023-03-12T06:37:21;16.83;;;12.83;;
60873;SDS011;46715;40.642;-7.920;2023-03-12T06:39:21;26.70;;;17.63;;
60873;SDS011;46715;40.642;-7.920;2023-03-12T06:41:24;190.15;;;26.65;;
60873;SDS011;46715;40.642;-7.920;2023-03-12T06:43:26;256.60;;;27.07;;
60873;SDS011;46715;40.642;-7.920;2023-03-12T06:45:28;252.45;;;33.13;;
60873;SDS011;46715;40.642;-7.920;2023-03-12T06:47:29;22.90;;;15.67;;
60873;SDS011;46715;40.642;-7.920;2023-03-12T06:49:29;22.80;;;15.80;;
60873;SDS011;46715;40.642;-7.920;2023-03-12T06:51:32;66.40;;;18.27;;
60873;SDS011;46715;40.642;-7.920;2023-03-12T06:53:33;41.47;;;17.30;;
60873;SDS011;46715;40.642;-7.920;2023-03-12T06:55:34;29.47;;;17.27;;
60873;SDS011;46715;40.642;-7.920;2023-03-12T06:57:38;20.02;;;14.95;;
60873;SDS011;46715;40.642;-7.920;2023-03-12T06:59:39;22.90;;;15.70;;
60873;SDS011;46715;40.642;-7.920;2023-03-12T07:01:40;19.00;;;14.00;;
60873;SDS011;46715;40.642;-7.920;2023-03-12T07:03:40;25.57;;;13.50;;
60873;SDS011;46715;40.642;-7.920;2023-03-12T07:05:45;19.97;;;14.60;;
60873;SDS011;46715;40.642;-7.920;2023-03-12T07:07:46;18.23;;;14.23;;
60873;SDS011;46715;40.642;-7.920;2023-03-12T07:09:48;24.33;;;14.98;;
60873;SDS011;46715;40.642;-7.920;2023-03-12T07:11:49;30.73;;;15.17;;
60873;SDS011;46715;40.642;-7.920;2023-03-12T07:13:50;21.97;;;14.40;;
60873;SDS011;46715;40.642;-7.920;2023-03-12T07:15:51;16.43;;;13.53;;
60873;SDS011;46715;40.642;-7.920;2023-03-12T07:17:52;14.17;;;12.00;;
60873;SDS011;46715;40.642;-7.920;2023-03-12T07:19:52;15.60;;;12.30;;
60873;SDS011;46715;40.642;-7.920;2023-03-12T07:21:53;15.47;;;11.53;;
60873;SDS011;46715;40.642;-7.920;2023-03-12T07:23:54;13.93;;;10.88;;
60873;SDS011;46715;40.642;-7.920;2023-03-12T07:25:55;14.83;;;11.60;;
60873;SDS011;46715;40.642;-7.920;2023-03-12T07:27:56;13.80;;;10.83;;
60873;SDS011;46715;40.642;-7.920;2023-03-12T07:29:57;14.80;;;10.60;;
60873;SDS011;46715;40.642;-7.920;2023-03-12T07:31:57;10.27;;;9.27;;
60873;SDS011;46715;40.642;-7.920;2023-03-12T07:33:58;14.60;;;10.73;;
60873;SDS011;46715;40.642;-7.920;2023-03-12T07:35:59;11.73;;;10.30;;
60873;SDS011;46715;40.642;-7.920;2023-03-12T07:38:00;12.55;;;10.88;;
60873;SDS011;46715;40.642;-7.920;2023-03-12T07:40:02;13.02;;;10.20;;
60873;SDS011;46715;40.642;-7.920;2023-03-12T07:42:07;12.82;;;8.60;;
60873;SDS011;46715;40.642;-7.920;2023-03-12T07:44:09;9.20;;;8.07;;
60873;SDS011;46715;40.642;-7.920;2023-03-12T07:46:10;7.60;;;6.83;;
60873;SDS011;46715;40.642;-7.920;2023-03-12T07:48:11;7.53;;;5.77;;
60873;SDS011;46715;40.642;-7.920;2023-03-12T07:50:11;6.53;;;5.77;;
60873;SDS011;46715;40.642;-7.920;2023-03-12T07:52:13;6.68;;;5.97;;
60873;SDS011;46715;40.642;-7.920;2023-03-12T07:54:15;12.13;;;7.20;;
60873;SDS011;46715;40.642;-7.920;2023-03-12T07:56:16;11.63;;;7.13;;
60873;SDS011;46715;40.642;-7.920;2023-03-12T07:58:16;9.90;;;6.70;;
60873;SDS011;46715;40.642;-7.920;2023-03-12T08:00:17;8.23;;;5.50;;
60873;SDS011;46715;40.642;-7.920;2023-03-12T08:02:18;6.38;;;5.38;;
60873;SDS011;46715;40.642;-7.920;2023-03-12T08:04:19;6.55;;;5.40;;
60873;SDS011;46715;40.642;-7.920;2023-03-12T08:06:21;6.80;;;5.25;;
60873;SDS011;46715;40.642;-7.920;2023-03-12T08:08:22;7.17;;;4.93;;
60873;SDS011;46715;40.642;-7.920;2023-03-12T08:10:22;6.07;;;5.07;;
60873;SDS011;46715;40.642;-7.920;2023-03-12T08:12:23;7.93;;;5.03;;
60873;SDS011;46715;40.642;-7.920;2023-03-12T08:14:24;7.43;;;5.50;;
60873;SDS011;46715;40.642;-7.920;2023-03-12T08:16:25;6.33;;;5.33;;
60873;SDS011;46715;40.642;-7.920;2023-03-12T08:18:26;7.60;;;5.38;;
60873;SDS011;46715;40.642;-7.920;2023-03-12T08:20:26;6.22;;;5.40;;
60873;SDS011;46715;40.642;-7.920;2023-03-12T08:22:28;8.10;;;5.93;;
60873;SDS011;46715;40.642;-7.920;2023-03-12T08:24:28;7.43;;;5.67;;
60873;SDS011;46715;40.642;-7.920;2023-03-12T08:26:29;7.32;;;5.40;;
60873;SDS011;46715;40.642;-7.920;2023-03-12T08:28:30;8.40;;;6.15;;
60873;SDS011;46715;40.642;-7.920;2023-03-12T08:30:31;9.95;;;6.57;;
60873;SDS011;46715;40.642;-7.920;2023-03-12T08:32:32;12.18;;;5.88;;
60873;SDS011;46715;40.642;-7.920;2023-03-12T08:34:33;10.15;;;6.97;;
60873;SDS011;46715;40.642;-7.920;2023-03-12T08:36:34;10.90;;;8.05;;
60873;SDS011;46715;40.642;-7.920;2023-03-12T08:38:36;13.23;;;8.68;;
60873;SDS011;46715;40.642;-7.920;2023-03-12T08:40:37;11.10;;;9.65;;
60873;SDS011;46715;40.642;-7.920;2023-03-12T08:42:39;12.70;;;9.40;;
60873;SDS011;46715;40.642;-7.920;2023-03-12T08:44:41;13.55;;;9.45;;
60873;SDS011;46715;40.642;-7.920;2023-03-12T08:46:41;13.13;;;10.02;;
60873;SDS011;46715;40.642;-7.920;2023-03-12T08:48:42;11.25;;;9.63;;
60873;SDS011;46715;40.642;-7.920;2023-03-12T08:50:43;15.23;;;10.52;;
60873;SDS011;46715;40.642;-7.920;2023-03-12T08:52:44;17.50;;;14.25;;
60873;SDS011;46715;40.642;-7.920;2023-03-12T08:54:45;19.98;;;17.25;;
60873;SDS011;46715;40.642;-7.920;2023-03-12T08:56:51;17.92;;;16.05;;
60873;SDS011;46715;40.642;-7.920;2023-03-12T08:58:52;17.60;;;13.43;;
60873;SDS011;46715;40.642;-7.920;2023-03-12T09:00:54;20.92;;;15.68;;
60873;SDS011;46715;40.642;-7.920;2023-03-12T09:02:55;24.15;;;17.50;;
60873;SDS011;46715;40.642;-7.920;2023-03-12T09:04:57;26.08;;;20.23;;
60873;SDS011;46715;40.642;-7.920;2023-03-12T09:06:59;20.77;;;18.17;;
60873;SDS011;46715;40.642;-7.920;2023-03-12T09:09:00;25.83;;;19.83;;
60873;SDS011;46715;40.642;-7.920;2023-03-12T09:11:05;24.95;;;19.55;;
60873;SDS011;46715;40.642;-7.920;2023-03-12T09:13:06;28.58;;;20.10;;
60873;SDS011;46715;40.642;-7.920;2023-03-12T09:15:07;26.30;;;23.30;;
60873;SDS011;46715;40.642;-7.920;2023-03-12T09:19:09;28.00;;;23.97;;
60873;SDS011;46715;40.642;-7.920;2023-03-12T09:21:10;29.20;;;22.08;;
60873;SDS011;46715;40.642;-7.920;2023-03-12T09:23:10;29.50;;;22.85;;
60873;SDS011;46715;40.642;-7.920;2023-03-12T09:25:11;33.00;;;23.33;;
60873;SDS011;46715;40.642;-7.920;2023-03-12T09:27:12;33.10;;;24.67;;
60873;SDS011;46715;40.642;-7.920;2023-03-12T09:29:13;27.13;;;24.23;;
60873;SDS011;46715;40.642;-7.920;2023-03-12T09:31:15;28.17;;;22.15;;
60873;SDS011;46715;40.642;-7.920;2023-03-12T09:33:16;30.55;;;19.25;;
60873;SDS011;46715;40.642;-7.920;2023-03-12T09:35:17;24.88;;;16.10;;
60873;SDS011;46715;40.642;-7.920;2023-03-12T09:37:18;30.70;;;22.50;;
60873;SDS011;46715;40.642;-7.920;2023-03-12T09:39:19;23.50;;;18.50;;
60873;SDS011;46715;40.642;-7.920;2023-03-12T09:45:43;22.73;;;17.98;;
60873;SDS011;46715;40.642;-7.920;2023-03-12T09:47:48;25.85;;;20.15;;
60873;SDS011;46715;40.642;-7.920;2023-03-12T09:49:55;55.63;;;41.92;;
60873;SDS011;46715;40.642;-7.920;2023-03-12T09:55:07;23.05;;;17.45;;
60873;SDS011;46715;40.642;-7.920;2023-03-12T09:57:18;21.92;;;18.38;;
60873;SDS011;46715;40.642;-7.920;2023-03-12T09:59:23;22.70;;;17.45;;
60873;SDS011;46715;40.642;-7.920;2023-03-12T10:01:37;21.92;;;15.27;;
60873;SDS011;46715;40.642;-7.920;2023-03-12T10:03:54;17.17;;;13.98;;
60873;SDS011;46715;40.642;-7.920;2023-03-12T10:06:21;15.27;;;13.02;;
60873;SDS011;46715;40.642;-7.920;2023-03-12T10:08:29;18.35;;;14.35;;
60873;SDS011;46715;40.642;-7.920;2023-03-12T10:13:07;15.82;;;11.27;;
60873;SDS011;46715;40.642;-7.920;2023-03-12T10:17:38;15.35;;;11.25;;
60873;SDS011;46715;40.642;-7.920;2023-03-12T10:20:25;14.90;;;10.30;;
60873;SDS011;46715;40.642;-7.920;2023-03-12T10:27:16;16.08;;;11.07;;
60873;SDS011;46715;40.642;-7.920;2023-03-12T10:29:19;19.02;;;11.55;;
60873;SDS011;46715;40.642;-7.920;2023-03-12T10:31:27;15.48;;;11.63;;
60873;SDS011;46715;40.642;-7.920;2023-03-12T10:33:41;14.52;;;10.05;;
60873;SDS011;46715;40.642;-7.920;2023-03-12T10:35:47;15.32;;;11.07;;
60873;SDS011;46715;40.642;-7.920;2023-03-12T10:37:52;16.20;;;10.20;;
60873;SDS011;46715;40.642;-7.920;2023-03-12T10:39:56;9.65;;;7.40;;
60873;SDS011;46715;40.642;-7.920;2023-03-12T10:41:59;13.52;;;8.23;;
60873;SDS011;46715;40.642;-7.920;2023-03-12T10:44:02;12.55;;;8.73;;
60873;SDS011;46715;40.642;-7.920;2023-03-12T10:48:18;11.98;;;6.07;;
60873;SDS011;46715;40.642;-7.920;2023-03-12T10:50:22;13.23;;;6.18;;
60873;SDS011;46715;40.642;-7.920;2023-03-12T10:52:24;11.38;;;6.72;;
60873;SDS011;46715;40.642;-7.920;2023-03-12T10:56:38;7.30;;;4.40;;
60873;SDS011;46715;40.642;-7.920;2023-03-12T10:58:50;8.65;;;5.30;;
60873;SDS011;46715;40.642;-7.920;2023-03-12T11:00:57;15.35;;;7.07;;
60873;SDS011;46715;40.642;-7.920;2023-03-12T11:03:03;10.48;;;7.90;;
60873;SDS011;46715;40.642;-7.920;2023-03-12T11:05:27;14.68;;;5.75;;
60873;SDS011;46715;40.642;-7.920;2023-03-12T11:07:34;6.43;;;3.15;;
60873;SDS011;46715;40.642;-7.920;2023-03-12T11:09:35;4.78;;;2.38;;
60873;SDS011;46715;40.642;-7.920;2023-03-12T11:11:36;4.57;;;2.67;;
60873;SDS011;46715;40.642;-7.920;2023-03-12T11:13:38;6.75;;;3.10;;
60873;SDS011;46715;40.642;-7.920;2023-03-12T11:15:41;3.35;;;1.80;;
60873;SDS011;46715;40.642;-7.920;2023-03-12T11:17:43;8.35;;;2.60;;
60873;SDS011;46715;40.642;-7.920;2023-03-12T11:19:43;5.63;;;2.83;;
60873;SDS011;46715;40.642;-7.920;2023-03-12T11:21:58;7.18;;;3.20;;
60873;SDS011;46715;40.642;-7.920;2023-03-12T11:24:12;5.10;;;3.30;;
60873;SDS011;46715;40.642;-7.920;2023-03-12T11:26:17;9.57;;;3.30;;
60873;SDS011;46715;40.642;-7.920;2023-03-12T11:28:22;5.45;;;3.17;;
60873;SDS011;46715;40.642;-7.920;2023-03-12T11:30:37;7.22;;;3.10;;
60873;SDS011;46715;40.642;-7.920;2023-03-12T11:32:44;4.00;;;2.28;;
60873;SDS011;46715;40.642;-7.920;2023-03-12T11:34:49;7.18;;;3.00;;
60873;SDS011;46715;40.642;-7.920;2023-03-12T11:36:58;7.05;;;3.45;;
60873;SDS011;46715;40.642;-7.920;2023-03-12T12:00:25;7.15;;;3.40;;
60873;SDS011;46715;40.642;-7.920;2023-03-12T12:07:15;4.32;;;2.38;;
60873;SDS011;46715;40.642;-7.920;2023-03-12T12:12:20;4.95;;;2.72;;
60873;SDS011;46715;40.642;-7.920;2023-03-12T12:14:58;3.95;;;2.58;;
60873;SDS011;46715;40.642;-7.920;2023-03-12T12:33:15;8.82;;;2.05;;
60873;SDS011;46715;40.642;-7.920;2023-03-12T12:35:33;5.53;;;2.75;;
60873;SDS011;46715;40.642;-7.920;2023-03-12T12:37:39;6.30;;;2.00;;
60873;SDS011;46715;40.642;-7.920;2023-03-12T12:39:59;4.38;;;1.83;;
60873;SDS011;46715;40.642;-7.920;2023-03-12T12:42:09;4.95;;;2.58;;
60873;SDS011;46715;40.642;-7.920;2023-03-12T12:44:46;6.28;;;2.17;;
60873;SDS011;46715;40.642;-7.920;2023-03-12T12:46:58;4.68;;;2.80;;
60873;SDS011;46715;40.642;-7.920;2023-03-12T12:50:03;5.70;;;2.30;;
60873;SDS011;46715;40.642;-7.920;2023-03-12T12:51:44;4.53;;;2.90;;
60873;SDS011;46715;40.642;-7.920;2023-03-12T12:54:08;4.80;;;2.88;;
60873;SDS011;46715;40.642;-7.920;2023-03-12T12:56:24;4.90;;;2.78;;
60873;SDS011;46715;40.642;-7.920;2023-03-12T13:01:06;4.00;;;2.60;;
60873;SDS011;46715;40.642;-7.920;2023-03-12T13:03:15;4.93;;;2.55;;
60873;SDS011;46715;40.642;-7.920;2023-03-12T13:05:22;6.05;;;2.38;;
60873;SDS011;46715;40.642;-7.920;2023-03-12T13:07:36;4.22;;;2.25;;
60873;SDS011;46715;40.642;-7.920;2023-03-12T13:11:48;5.78;;;2.40;;
60873;SDS011;46715;40.642;-7.920;2023-03-12T13:16:18;4.57;;;2.33;;
60873;SDS011;46715;40.642;-7.920;2023-03-12T13:18:27;7.80;;;2.40;;
60873;SDS011;46715;40.642;-7.920;2023-03-12T13:23:11;4.15;;;2.40;;
60873;SDS011;46715;40.642;-7.920;2023-03-12T13:28:02;5.45;;;2.67;;
60873;SDS011;46715;40.642;-7.920;2023-03-12T13:34:56;4.90;;;2.50;;
60873;SDS011;46715;40.642;-7.920;2023-03-12T13:36:58;4.40;;;2.55;;
60873;SDS011;46715;40.642;-7.920;2023-03-12T13:41:05;6.32;;;2.70;;